Air Quality Table

TIMESTAMP NO2 SO2 O3 PM10 PM2.5 CO TEMP HUM AIRPRES WS WD NO BENZENE
2023-02-03 21:00 47.51 µg/m3 1.6 µg/m3 13.27 µg/m3 22.65 µg/m3 10.51 µg/m3 0.66 mg/m3 10.51 °C 82.16 % 1,026.14 mbar 0.89 m/s 233.43 Deg 35.6 µg/m3 4.7 µg/m3
2023-02-03 20:00 57.09 µg/m3 1.72 µg/m3 12.33 µg/m3 25.05 µg/m3 11.57 µg/m3 0.57 mg/m3 10.91 °C 81.43 % 1,026.06 mbar 0.77 m/s 231.26 Deg 50.29 µg/m3 2.99 µg/m3
2023-02-03 19:00 61.97 µg/m3 1.43 µg/m3 12.6 µg/m3 31.46 µg/m3 13.25 µg/m3 0.52 mg/m3 12.25 °C 75.93 % 1,026.21 mbar 0.56 m/s 189.35 Deg 53.29 µg/m3 3.46 µg/m3
2023-02-03 18:00 59.93 µg/m3 1.53 µg/m3 18.44 µg/m3 32.52 µg/m3 19.08 µg/m3 0.45 mg/m3 13.59 °C 70.6 % 1,026.01 mbar 0.76 m/s 141.78 Deg 38.86 µg/m3 4.09 µg/m3
2023-02-03 17:00 41.74 µg/m3 1.34 µg/m3 39.85 µg/m3 26.96 µg/m3 8.98 µg/m3 0.36 mg/m3 15.12 °C 63.43 % 1,025.66 mbar 1.06 m/s 155.39 Deg 18.33 µg/m3 1.44 µg/m3
2023-02-03 16:00 29.03 µg/m3 1.28 µg/m3 49.07 µg/m3 27.9 µg/m3 8.29 µg/m3 0.35 mg/m3 15.47 °C 60.86 % 1,025.37 mbar 1.56 m/s 126.78 Deg 13.23 µg/m3 2.03 µg/m3
2023-02-03 15:00 19.94 µg/m3 0.92 µg/m3 60.88 µg/m3 20.55 µg/m3 7.95 µg/m3 0.36 mg/m3 15.17 °C 64.46 % 1,025.05 mbar 2.53 m/s 60.94 Deg 9.15 µg/m3 1.47 µg/m3
2023-02-03 14:00 19.99 µg/m3 1.04 µg/m3 54.11 µg/m3 20.92 µg/m3 8.28 µg/m3 0.39 mg/m3 15.15 °C 67.11 % 1,025.20 mbar 2.52 m/s 64.96 Deg 8.29 µg/m3 2.05 µg/m3
2023-02-03 13:00 18.07 µg/m3 0.86 µg/m3 55.69 µg/m3 20.93 µg/m3 7.59 µg/m3 0.44 mg/m3 15.22 °C 67.52 % 1,025.68 mbar 2.4 m/s 62.31 Deg 8.3 µg/m3 1.18 µg/m3
2023-02-03 12:00 22.93 µg/m3 1.01 µg/m3 49.57 µg/m3 22.46 µg/m3 7.54 µg/m3 0.53 mg/m3 14.99 °C 68.67 % 1,026.35 mbar 2.15 m/s 56.88 Deg 13.23 µg/m3 1.63 µg/m3
2023-02-03 11:00 32.31 µg/m3 1.59 µg/m3 37.52 µg/m3 34.14 µg/m3 9.94 µg/m3 0.65 mg/m3 14.65 °C 70.79 % 1,026.61 mbar 1.6 m/s 62.43 Deg 19.95 µg/m3 2.6 µg/m3
2023-02-03 10:00 51.73 µg/m3 2.29 µg/m3 8.34 µg/m3 58.17 µg/m3 15.47 µg/m3 0.75 mg/m3 13.73 °C 75.47 % 1,026.29 mbar 0.26 m/s 199.34 Deg 91.51 µg/m3 4.97 µg/m3
2023-02-03 09:00 46.62 µg/m3 2.72 µg/m3 1.56 µg/m3 77.32 µg/m3 18.1 µg/m3 0.76 mg/m3 11.66 °C 83.16 % 1,025.60 mbar 0.43 m/s 221.2 Deg 153.7 µg/m3 5.2 µg/m3
2023-02-03 08:00 46.03 µg/m3 2.26 µg/m3 1.31 µg/m3 52.83 µg/m3 13.5 µg/m3 0.65 mg/m3 10.05 °C 84.54 % 1,024.90 mbar 1.03 m/s 235.86 Deg 117.35 µg/m3 4.2 µg/m3
2023-02-03 07:00 46.32 µg/m3 2.14 µg/m3 1.38 µg/m3 41.92 µg/m3 12.39 µg/m3 0.51 mg/m3 9.35 °C 86.41 % 1,024.36 mbar 0.65 m/s 229.36 Deg 132.43 µg/m3 4.88 µg/m3
2023-02-03 06:00 38.64 µg/m3 1.37 µg/m3 9.18 µg/m3 17.48 µg/m3 6.16 µg/m3 0.34 mg/m3 10.5 °C 81.21 % 1,024.14 mbar 0.62 m/s 218.61 Deg 71.04 µg/m3 2.05 µg/m3
2023-02-03 05:00 20.84 µg/m3 0.55 µg/m3 24.62 µg/m3 11.97 µg/m3 4.74 µg/m3 0.27 mg/m3 10.24 °C 82.53 % 1,023.80 mbar 0.87 m/s 232.44 Deg 14.07 µg/m3 0.89 µg/m3
2023-02-03 04:00 12.51 µg/m3 0.67 µg/m3 44.84 µg/m3 9.36 µg/m3 4.26 µg/m3 0.27 mg/m3 11.69 °C 77.36 % 1,024.06 mbar 0.78 m/s 220.94 Deg 2.36 µg/m3 0.73 µg/m3
2023-02-03 03:00 23.28 µg/m3 0.48 µg/m3 42.97 µg/m3 8.36 µg/m3 4.01 µg/m3 0.21 mg/m3 12.37 °C 73.93 % 1,024.04 mbar 1.04 m/s 219.38 Deg 1.8 µg/m3 0.68 µg/m3
2023-02-03 02:00 8.72 µg/m3 0.48 µg/m3 46.33 µg/m3 9.43 µg/m3 4.24 µg/m3 0.31 mg/m3 12.66 °C 72.5 % 1,024.10 mbar 0.78 m/s 219.88 Deg 2.13 µg/m3 0.68 µg/m3
2023-02-03 01:00 8.62 µg/m3 0.54 µg/m3 46.62 µg/m3 9.44 µg/m3 4.75 µg/m3 0.35 mg/m3 12.38 °C 75.14 % 1,024.34 mbar 1.1 m/s 221.32 Deg 2.03 µg/m3 0.87 µg/m3
2023-02-03 00:00 19.25 µg/m3 0.87 µg/m3 34.4 µg/m3 12.09 µg/m3 5.55 µg/m3 0.39 mg/m3 12.01 °C 78.88 % 1,024.44 mbar 1.37 m/s 219.55 Deg 8.98 µg/m3 1.15 µg/m3

It is to be noted that the data is provisional and subject to quality assurance procedures. For validated data kindly refer your request to contact.air@era.org.mt